Mombasa, Kenya

12:44 PM EAT on March 28, 2017 (GMT +0300)
Moi | | Change Station

Elev 180 ft 4.03 °S, 39.62 °E | Updated 44 minutes ago

Mostly Cloudy
Mostly Cloudy
84 °F
Feels Like 91 °F
N
5
Wind Variable Wind from SSW

Today
High -- | Low -- °F
--% Chance of Precip.
Yesterday
High -- | Low -- °F
Precip. -- in
Pressure 29.95 in
Visibility 6.2 miles
Clouds Few 2300 ft
Mostly Cloudy 9000 ft
Heat Index 91 °F
Dew Point 73 °F
Humidity 70%
Rainfall 0.00 in
Snow Depth Not available.
6:24 AM 6:28 PM
New Moon, 0% visible
METAR HKMO 280900Z 21004KT 9999 FEW023CB BKN090 29/23 Q1014 NOSIG
Pressure 29.95 in
Visibility 6.2 miles
Clouds Few 2300 ft
Mostly Cloudy 9000 ft
Heat Index 91 °F
Dew Point 73 °F
Humidity 70%
Rainfall 0.00 in
Snow Depth Not available.
6:24 AM 6:28 PM
New Moon, 0% visible
METAR HKMO 280900Z 21004KT 9999 FEW023CB BKN090 29/23 Q1014 NOSIG

Get Severe Weather Alerts

Thanks for signing up!

Be on the lookout for a verification email in your inbox.

You'll start receiving the daily forecast at 8 AM.

×

10-Day Weather Forecast

No radar image for this location.
×

Almanac

Astronomy

Mar. 28, 2017 Rise Set
Actual Time
Civil Twilight
Nautical Twilight
Astronomical Twilight
Moon
Length of Visible Light
Length of Day
Tomorrow will be .
, % of the Moon is Illuminated

Today's Extremes

Country Highs Country Lows

Community

WunderPhotos

Upload Photos

1,962,540 photos uploaded!

WunderBlog® & News

Nearby

Air Quality

  Air Quality AQ Index Pollutant
Not available.

Snow Depth

Station Depth Elevation

Earthquake Activity

City Distance Mag. Time & Date
Minimum magnitude displayed is 2.5.

Earthquake Activity

City Distance Mag. Time & Date
Minimum magnitude displayed is 2.5.

Coastal Water Temperatures

Place Temperature

Stations

Nearby Weather Stations

Station Location Temp. Windchill Dew Point Humidity Wind Precip. Elev Updated Type